Česky Dansk Deutsch English Español Suomi Français Magyar Italiano Nederlands norsk Polski Português svenska Türkçe

 

Het Weer

Uberlandia (Brazilië)

01:00, 25 juli 2016 (GMT)

NWNNE
WE
SWSSE
Home            
Uberlandia Uberaba Leite Lopes / Ribeir Goiania Aeroporto Anapolis Braz-Afb Gama Brasilia Aeroporto Sao Carlos Pirassununga Pocos De Caldas Bauru Belo Horizonte Aeroporto Belo Horizonte Campinas Aeroporto Presidente Prudente Montes Claros Barbacena Guaratingueta Guarulhos Civ / Mil Marte Civ / Mil Sao Jose Dos Campo Sao Paulo/Congonhas Aeroporto Barra Do Garcas

Om een weerknop op uw website of weblog te plaatsen, copieer onderstaande code en plak die in uw pagina. In het eerste vakje staat HTML-code, in het tweede vakje UBB-code.


Add to Google

Details

Wind speed:2 bf, 5 kn, 2.6 m/s, 5.8 miles/h, 9.3 km/h
Wind direction:ENE, 070°
Visibility:Greater than 10000 m, 10 km, 32800 ft, 6.2 miles
Clouds:CAVOC
Temperature:20°C, 68°F
Dew-point:8°C, 46°F
Atmospheric pressure:1023 hPa, 767.3 mmHg, 30.21 inHg, 1.010 atm
Relative humidity:45.9 %
METAR:SBUL 250100Z 07005KT CAVOK 20/08 Q1023

Snelkoppelingen

Actuele weersinformatie van de hele wereld. Voeg locaties toe met het plus (+) symbool. Deze snelkoppelingen kunnen worden toegevoegd aan Google.

Lid van de Technetium groep

website free tracking
StatCounter NetStat W3C Validator

28-09-2020 11:10:37
astro.technetium.be money.technetium.be phote.technetium.be tafeltennistafel.technetium.be www.ligfiets.net